Aérodrome :







RETROUVEZ-NOUS SUR...

 
LOGIN :

S'inscrire | Disclaimer

   EN    FR    IT 

 









Légende :    VFR   VFR Marginal   IFR   IFR Intensif   IFR Très Intensif
Visi : 
Plafond : 
>= 8 km
>= 3000ft
5 à 8 km
1000 à 3000 ft
1500m à 5 km
500 à 1000 ft
800 à 1500m
200 à 500 ft
< 800m
< 200 ft
Symboles :   Orages  Brouillard  Fortes neiges  Fortes précipitations  Vent > 20 kt






- Altitude de l'aérodrome : 20 ft
- Code IATA : BON


TNCB - Flamingo

DERNIER METAR :
  • 191755Z AUTO 09016KT 040V120 9999 BKN015/// 29/24 Q1013

METARs EXPIRÉS :
  • 191655Z 07016KT 040V100 9999 SCT015 29/24 Q1014
  • 191555Z 08019KT 050V110 9999 FEW014 SCT016 BKN019 28/23 Q1015

TAF TAF TNCB
Valide du 19 à 18h jusqu'au 21 à 00h UTC


191659Z 1918/2024 08016KT 9999 SCT020
PROB30
TEMPO 1918/1922 09020G30KT 6000 SHRA SCT018CB
PROB30
TEMPO 2008/2019 09020G30KT 6000 SHRA SCT018CB



MET'MAP, la Météo Aéronautique d'un coup d'oeil ! - Copyright ORBIFLY Décembre 2007 - Disclaimer

ORBIFLY MET'MAP TEAM :

Programmation & Développement : Alexandra Zaïnal
Sur une idée originale de : Baudouin d'Aumeries
Assistance à la programmation : Marc-Olivier Méhu
Soutien technique & logistique : Manuel Goepfert

Contact : metmap@orbifly.com




SOURCES & CREDITS :

   NOAA